Detall de PIREP

Printer-friendly versionPDF version

[2013/11/28 15:34:00]
Flight IATA:CT3247
Pilot Number:012
Company ICAO:CAT
Aircraft Type:B763/F
PAX:263
Departing Airport: EETN
Destination Airport: LEPA
Alternate Airport:LEBL
Online: VATSIM
Route:LONSA/M080F360 Q11 ODVIN P31 MILTA L134 GARSO P733 TIGNU B73 RANOK P861 RASAN UP861 RUDAP UP31 DOSEL UM736 BZO/M080F370 UM984 PADKO UY38 VATIR UN852 VERSO UL129 LUNIK
Flight Level:F370
No Slew and time accel
No pause
Crash detect
Detect pilot in Cockpit between each 30 and 45 minutes
15:34 Zero fuel Weight: 259340 Lbs, Fuel Weight: 54993 Lbs
15:34 VATSIM:EETN 281520Z 29017G28KT 9999 BKN033 04/M03 Q0990 R08/00//95 NOSIG
15:34 VATSIM:LEPA 281500Z 07011KT 9999 FEW028 10/05 Q1026 NOSIG
15:34 VOICE CATALONIAN
15:35 Parking Brakes off
15:44 Take-off
15:44 Take off Weight: 312162 Lbs
15:44 Wind: 282º @ 025 Knots Heading: 271º
15:44 POS N59º 24´ 48´´ E024º 50´ 04´´
15:44 Gear Up: 173 Knots
15:44 Flaps:2 at 173 Knots
15:45 Flaps:1 at 182 Knots
15:45 Flaps:0 at 195 Knots
15:59 Wind:318º@061 Knots Heading: 224º Ground Speed: 455 Knots Altitude 35016 ft
16:14 Wind:318º@079 Knots Heading: 214º Ground Speed: 481 Knots Altitude 35620 ft
16:29 Wind:317º@110 Knots Heading: 229º Ground Speed: 460 Knots Altitude 35826 ft
16:44 Wind:320º@087 Knots Heading: 220º Ground Speed: 477 Knots Altitude 36033 ft
16:59 Wind:333º@078 Knots Heading: 218º Ground Speed: 492 Knots Altitude 36190 ft
17:14 Wind:001º@052 Knots Heading: 215º Ground Speed: 494 Knots Altitude 36332 ft
17:29 Wind:058º@050 Knots Heading: 218º Ground Speed: 497 Knots Altitude 36476 ft
17:40 TOC
17:40 Fuel Weight: 29619 Lb
17:44 Wind:060º@064 Knots Heading: 251º Ground Speed: 515 Knots Altitude 37434 ft
17:59 Wind:067º@066 Knots Heading: 208º Ground Speed: 504 Knots Altitude 37440 ft
18:14 Wind:073º@070 Knots Heading: 247º Ground Speed: 521 Knots Altitude 37381 ft
18:29 Wind:077º@078 Knots Heading: 214º Ground Speed: 510 Knots Altitude 37434 ft
18:42 TOD
18:42 Fuel Weight: 19770 Lb
18:44 Wind:057º@020 Knots Heading: 199º Ground Speed: 477 Knots Altitude 30652 ft
18:59 Wind:032º@008 Knots Heading: 178º Ground Speed: 252 Knots Altitude 6007 ft
19:06 Flaps:1 at 226 Knots
19:06 Flaps:2 at 205 Knots
19:06 Flaps:3 at 192 Knots
19:07 Flaps:4 at 184 Knots
19:07 Flaps:5 at 172 Knots
19:07 Flaps:6 at 159 Knots
19:08 Gear Down: 145 Knots
19:10 TouchDown:Rate -297 ft/min Speed: 120 Knots
19:10 VATSIM:LEPA 281900Z 00000KT 9999 FEW025 06/04 Q1027 NOSIG
19:10 Land
19:10 Wind:049º@003 Knots
19:10 Heading: 239º
19:10 Flight Duration: 03:26
19:10 Landing Weight: 276272 Lbs
19:10 POS N39º 32´ 40´´ E002º 44´ 18´´
19:11 Parking brakes on
19:11 Block to Block Duration: 03:36
19:11 Final Fuel: 16827 Lbls
19:11 Spent Fuel: 38165 Lbls
19:11 Flight Length: 1564 NM
19:11 TOD Land Length: 140 NM

Exportar CSV

Powered by Drupal - Modified by Danger4k